sensor_id;sensor_type;location;lat;lon;timestamp;P1;durP1;ratioP1;P2;durP2;ratioP2
65368;SDS011;51970;53.484;49.488;2023-05-14T00:02:22;27.58;;;7.95;;
65368;SDS011;51970;53.484;49.488;2023-05-14T00:04:48;17.63;;;6.60;;
65368;SDS011;51970;53.484;49.488;2023-05-14T00:07:14;25.65;;;7.75;;
65368;SDS011;51970;53.484;49.488;2023-05-14T00:09:41;19.90;;;7.00;;
65368;SDS011;51970;53.484;49.488;2023-05-14T00:12:07;22.65;;;6.28;;
65368;SDS011;51970;53.484;49.488;2023-05-14T00:14:33;23.55;;;6.45;;
65368;SDS011;51970;53.484;49.488;2023-05-14T00:16:59;17.20;;;6.30;;
65368;SDS011;51970;53.484;49.488;2023-05-14T00:19:26;17.63;;;6.15;;
65368;SDS011;51970;53.484;49.488;2023-05-14T00:21:52;16.73;;;6.22;;
65368;SDS011;51970;53.484;49.488;2023-05-14T00:24:18;14.27;;;6.13;;
65368;SDS011;51970;53.484;49.488;2023-05-14T00:26:46;14.55;;;7.10;;
65368;SDS011;51970;53.484;49.488;2023-05-14T00:29:12;20.08;;;7.22;;
65368;SDS011;51970;53.484;49.488;2023-05-14T00:31:38;19.45;;;6.68;;
65368;SDS011;51970;53.484;49.488;2023-05-14T00:34:04;14.52;;;6.00;;
65368;SDS011;51970;53.484;49.488;2023-05-14T00:36:30;16.20;;;6.00;;
65368;SDS011;51970;53.484;49.488;2023-05-14T00:38:56;18.52;;;6.40;;
65368;SDS011;51970;53.484;49.488;2023-05-14T00:41:22;20.13;;;7.15;;
65368;SDS011;51970;53.484;49.488;2023-05-14T00:43:48;13.82;;;6.53;;
65368;SDS011;51970;53.484;49.488;2023-05-14T00:46:15;14.52;;;5.85;;
65368;SDS011;51970;53.484;49.488;2023-05-14T00:48:41;17.40;;;6.07;;
65368;SDS011;51970;53.484;49.488;2023-05-14T00:51:08;17.65;;;7.20;;
65368;SDS011;51970;53.484;49.488;2023-05-14T00:53:35;19.55;;;6.75;;
65368;SDS011;51970;53.484;49.488;2023-05-14T00:56:01;20.48;;;8.25;;
65368;SDS011;51970;53.484;49.488;2023-05-14T00:58:27;19.58;;;7.53;;
65368;SDS011;51970;53.484;49.488;2023-05-14T01:00:54;15.50;;;5.88;;
65368;SDS011;51970;53.484;49.488;2023-05-14T01:03:20;22.17;;;7.53;;
65368;SDS011;51970;53.484;49.488;2023-05-14T01:05:52;15.95;;;6.88;;
65368;SDS011;51970;53.484;49.488;2023-05-14T01:14:21;16.17;;;6.75;;
65368;SDS011;51970;53.484;49.488;2023-05-14T01:16:52;12.80;;;6.50;;
65368;SDS011;51970;53.484;49.488;2023-05-14T01:19:32;16.55;;;6.82;;
65368;SDS011;51970;53.484;49.488;2023-05-14T01:22:01;14.48;;;7.28;;
65368;SDS011;51970;53.484;49.488;2023-05-14T01:24:28;17.83;;;7.20;;
65368;SDS011;51970;53.484;49.488;2023-05-14T01:26:55;15.27;;;6.63;;
65368;SDS011;51970;53.484;49.488;2023-05-14T01:29:44;15.80;;;6.82;;
65368;SDS011;51970;53.484;49.488;2023-05-14T01:32:19;16.98;;;7.13;;
65368;SDS011;51970;53.484;49.488;2023-05-14T01:34:49;16.80;;;7.15;;
65368;SDS011;51970;53.484;49.488;2023-05-14T01:37:16;16.23;;;6.78;;
65368;SDS011;51970;53.484;49.488;2023-05-14T01:39:43;18.23;;;6.35;;
65368;SDS011;51970;53.484;49.488;2023-05-14T01:42:10;18.17;;;6.75;;
65368;SDS011;51970;53.484;49.488;2023-05-14T01:44:37;18.50;;;6.78;;
65368;SDS011;51970;53.484;49.488;2023-05-14T01:47:03;16.88;;;7.93;;
65368;SDS011;51970;53.484;49.488;2023-05-14T01:49:30;19.10;;;8.32;;
65368;SDS011;51970;53.484;49.488;2023-05-14T01:51:57;18.63;;;8.40;;
65368;SDS011;51970;53.484;49.488;2023-05-14T01:54:23;18.08;;;8.10;;
65368;SDS011;51970;53.484;49.488;2023-05-14T01:56:50;18.13;;;8.23;;
65368;SDS011;51970;53.484;49.488;2023-05-14T01:59:16;15.85;;;7.63;;
65368;SDS011;51970;53.484;49.488;2023-05-14T02:01:42;18.58;;;7.80;;
65368;SDS011;51970;53.484;49.488;2023-05-14T02:04:09;15.57;;;7.60;;
65368;SDS011;51970;53.484;49.488;2023-05-14T02:06:35;20.73;;;9.10;;
65368;SDS011;51970;53.484;49.488;2023-05-14T02:09:03;21.85;;;9.45;;
65368;SDS011;51970;53.484;49.488;2023-05-14T02:11:30;20.30;;;10.95;;
65368;SDS011;51970;53.484;49.488;2023-05-14T02:13:56;20.95;;;11.38;;
65368;SDS011;51970;53.484;49.488;2023-05-14T02:16:22;29.15;;;14.10;;
65368;SDS011;51970;53.484;49.488;2023-05-14T02:18:48;37.35;;;15.73;;
65368;SDS011;51970;53.484;49.488;2023-05-14T02:21:15;31.48;;;15.75;;
65368;SDS011;51970;53.484;49.488;2023-05-14T02:23:41;35.20;;;15.35;;
65368;SDS011;51970;53.484;49.488;2023-05-14T02:26:09;34.47;;;15.43;;
65368;SDS011;51970;53.484;49.488;2023-05-14T02:28:35;23.98;;;13.27;;
65368;SDS011;51970;53.484;49.488;2023-05-14T02:31:02;24.10;;;11.35;;
65368;SDS011;51970;53.484;49.488;2023-05-14T02:33:28;26.35;;;11.68;;
65368;SDS011;51970;53.484;49.488;2023-05-14T02:35:54;24.90;;;10.88;;
65368;SDS011;51970;53.484;49.488;2023-05-14T02:38:20;19.67;;;9.07;;
65368;SDS011;51970;53.484;49.488;2023-05-14T02:40:48;21.40;;;9.18;;
65368;SDS011;51970;53.484;49.488;2023-05-14T02:43:14;14.93;;;8.50;;
65368;SDS011;51970;53.484;49.488;2023-05-14T02:45:40;13.00;;;7.78;;
65368;SDS011;51970;53.484;49.488;2023-05-14T02:48:06;19.48;;;8.20;;
65368;SDS011;51970;53.484;49.488;2023-05-14T02:50:32;21.58;;;12.45;;
65368;SDS011;51970;53.484;49.488;2023-05-14T02:52:58;30.27;;;14.68;;
65368;SDS011;51970;53.484;49.488;2023-05-14T02:55:26;37.70;;;16.50;;
65368;SDS011;51970;53.484;49.488;2023-05-14T02:57:52;26.05;;;13.27;;
65368;SDS011;51970;53.484;49.488;2023-05-14T03:00:18;25.40;;;12.40;;
65368;SDS011;51970;53.484;49.488;2023-05-14T03:02:44;22.13;;;12.10;;
65368;SDS011;51970;53.484;49.488;2023-05-14T03:05:10;19.95;;;9.18;;
65368;SDS011;51970;53.484;49.488;2023-05-14T03:07:36;21.45;;;9.63;;
65368;SDS011;51970;53.484;49.488;2023-05-14T03:10:03;20.30;;;8.85;;
65368;SDS011;51970;53.484;49.488;2023-05-14T03:12:30;16.83;;;8.43;;
65368;SDS011;51970;53.484;49.488;2023-05-14T03:14:56;19.15;;;8.07;;
65368;SDS011;51970;53.484;49.488;2023-05-14T03:17:22;15.82;;;7.45;;
65368;SDS011;51970;53.484;49.488;2023-05-14T03:19:48;15.52;;;6.95;;
65368;SDS011;51970;53.484;49.488;2023-05-14T03:22:14;17.70;;;7.22;;
65368;SDS011;51970;53.484;49.488;2023-05-14T03:24:41;17.10;;;8.65;;
65368;SDS011;51970;53.484;49.488;2023-05-14T03:27:08;16.38;;;8.63;;
65368;SDS011;51970;53.484;49.488;2023-05-14T03:29:34;16.48;;;7.10;;
65368;SDS011;51970;53.484;49.488;2023-05-14T03:32:00;15.98;;;6.45;;
65368;SDS011;51970;53.484;49.488;2023-05-14T03:34:26;14.18;;;5.50;;
65368;SDS011;51970;53.484;49.488;2023-05-14T03:36:53;8.85;;;4.90;;
65368;SDS011;51970;53.484;49.488;2023-05-14T03:39:19;11.65;;;5.65;;
65368;SDS011;51970;53.484;49.488;2023-05-14T03:41:46;17.77;;;5.90;;
65368;SDS011;51970;53.484;49.488;2023-05-14T03:44:13;13.73;;;5.85;;
65368;SDS011;51970;53.484;49.488;2023-05-14T03:46:41;19.35;;;6.65;;
65368;SDS011;51970;53.484;49.488;2023-05-14T03:49:07;12.02;;;5.53;;
65368;SDS011;51970;53.484;49.488;2023-05-14T03:51:33;11.07;;;4.78;;
65368;SDS011;51970;53.484;49.488;2023-05-14T03:54:00;9.77;;;4.85;;
65368;SDS011;51970;53.484;49.488;2023-05-14T03:56:28;9.85;;;5.13;;
65368;SDS011;51970;53.484;49.488;2023-05-14T03:58:55;10.73;;;5.35;;
65368;SDS011;51970;53.484;49.488;2023-05-14T04:01:21;10.90;;;5.30;;
65368;SDS011;51970;53.484;49.488;2023-05-14T04:03:48;10.40;;;5.43;;
65368;SDS011;51970;53.484;49.488;2023-05-14T04:06:14;10.38;;;5.47;;
65368;SDS011;51970;53.484;49.488;2023-05-14T04:08:40;10.27;;;3.85;;
65368;SDS011;51970;53.484;49.488;2023-05-14T04:11:07;9.50;;;3.85;;
65368;SDS011;51970;53.484;49.488;2023-05-14T04:13:34;10.95;;;4.80;;
65368;SDS011;51970;53.484;49.488;2023-05-14T04:16:00;10.13;;;4.72;;
65368;SDS011;51970;53.484;49.488;2023-05-14T04:18:26;10.13;;;3.85;;
65368;SDS011;51970;53.484;49.488;2023-05-14T04:20:52;9.73;;;3.50;;
65368;SDS011;51970;53.484;49.488;2023-05-14T04:23:19;10.77;;;4.63;;
65368;SDS011;51970;53.484;49.488;2023-05-14T04:25:46;17.38;;;7.70;;
65368;SDS011;51970;53.484;49.488;2023-05-14T04:28:12;20.25;;;7.80;;
65368;SDS011;51970;53.484;49.488;2023-05-14T04:30:38;17.08;;;7.05;;
65368;SDS011;51970;53.484;49.488;2023-05-14T04:33:05;18.95;;;6.80;;
65368;SDS011;51970;53.484;49.488;2023-05-14T04:35:31;19.80;;;7.30;;
65368;SDS011;51970;53.484;49.488;2023-05-14T04:38:00;18.05;;;7.78;;
65368;SDS011;51970;53.484;49.488;2023-05-14T04:40:27;13.45;;;6.80;;
65368;SDS011;51970;53.484;49.488;2023-05-14T04:42:55;13.25;;;6.10;;
65368;SDS011;51970;53.484;49.488;2023-05-14T04:45:22;12.95;;;6.47;;
65368;SDS011;51970;53.484;49.488;2023-05-14T04:47:49;15.50;;;6.43;;
65368;SDS011;51970;53.484;49.488;2023-05-14T04:50:16;12.35;;;5.50;;
65368;SDS011;51970;53.484;49.488;2023-05-14T04:52:43;8.63;;;3.67;;
65368;SDS011;51970;53.484;49.488;2023-05-14T04:55:09;8.32;;;4.35;;
65368;SDS011;51970;53.484;49.488;2023-05-14T04:57:35;15.30;;;4.35;;
65368;SDS011;51970;53.484;49.488;2023-05-14T05:00:02;9.10;;;3.88;;
65368;SDS011;51970;53.484;49.488;2023-05-14T05:02:30;8.68;;;4.90;;
65368;SDS011;51970;53.484;49.488;2023-05-14T05:04:59;10.18;;;3.42;;
65368;SDS011;51970;53.484;49.488;2023-05-14T05:07:25;8.68;;;3.85;;
65368;SDS011;51970;53.484;49.488;2023-05-14T05:09:55;13.55;;;5.38;;
65368;SDS011;51970;53.484;49.488;2023-05-14T05:12:22;15.23;;;7.25;;
65368;SDS011;51970;53.484;49.488;2023-05-14T05:14:55;19.85;;;7.88;;
65368;SDS011;51970;53.484;49.488;2023-05-14T05:17:23;13.98;;;6.93;;
65368;SDS011;51970;53.484;49.488;2023-05-14T05:19:57;13.60;;;7.05;;
65368;SDS011;51970;53.484;49.488;2023-05-14T05:22:44;18.23;;;7.55;;
65368;SDS011;51970;53.484;49.488;2023-05-14T05:25:10;13.77;;;6.50;;
65368;SDS011;51970;53.484;49.488;2023-05-14T05:27:44;18.45;;;7.65;;
65368;SDS011;51970;53.484;49.488;2023-05-14T05:30:11;15.02;;;7.25;;
65368;SDS011;51970;53.484;49.488;2023-05-14T05:32:39;12.98;;;6.70;;
65368;SDS011;51970;53.484;49.488;2023-05-14T05:35:05;11.68;;;6.72;;
65368;SDS011;51970;53.484;49.488;2023-05-14T05:37:33;12.57;;;6.35;;
65368;SDS011;51970;53.484;49.488;2023-05-14T05:40:00;12.70;;;6.85;;
65368;SDS011;51970;53.484;49.488;2023-05-14T05:42:32;14.70;;;7.03;;
65368;SDS011;51970;53.484;49.488;2023-05-14T05:44:59;13.93;;;6.90;;
65368;SDS011;51970;53.484;49.488;2023-05-14T05:47:25;13.00;;;7.57;;
65368;SDS011;51970;53.484;49.488;2023-05-14T05:49:52;14.07;;;6.95;;
65368;SDS011;51970;53.484;49.488;2023-05-14T05:52:19;14.00;;;7.55;;
65368;SDS011;51970;53.484;49.488;2023-05-14T05:54:47;13.50;;;7.18;;
65368;SDS011;51970;53.484;49.488;2023-05-14T05:57:16;12.00;;;6.03;;
65368;SDS011;51970;53.484;49.488;2023-05-14T05:59:43;14.43;;;7.00;;
65368;SDS011;51970;53.484;49.488;2023-05-14T06:02:12;12.48;;;6.20;;
65368;SDS011;51970;53.484;49.488;2023-05-14T06:04:41;12.80;;;6.38;;
65368;SDS011;51970;53.484;49.488;2023-05-14T06:07:07;13.73;;;5.70;;
65368;SDS011;51970;53.484;49.488;2023-05-14T06:09:35;10.45;;;5.47;;
65368;SDS011;51970;53.484;49.488;2023-05-14T06:12:05;8.32;;;4.00;;
65368;SDS011;51970;53.484;49.488;2023-05-14T06:14:45;11.05;;;4.55;;
65368;SDS011;51970;53.484;49.488;2023-05-14T06:17:17;12.75;;;4.95;;
65368;SDS011;51970;53.484;49.488;2023-05-14T06:19:45;14.15;;;7.32;;
65368;SDS011;51970;53.484;49.488;2023-05-14T06:22:15;12.93;;;5.68;;
65368;SDS011;51970;53.484;49.488;2023-05-14T06:24:44;12.57;;;6.28;;
65368;SDS011;51970;53.484;49.488;2023-05-14T06:27:10;18.10;;;5.95;;
65368;SDS011;51970;53.484;49.488;2023-05-14T06:29:36;18.58;;;6.90;;
65368;SDS011;51970;53.484;49.488;2023-05-14T06:32:03;14.25;;;5.78;;
65368;SDS011;51970;53.484;49.488;2023-05-14T06:34:30;11.63;;;6.43;;
65368;SDS011;51970;53.484;49.488;2023-05-14T06:37:00;11.05;;;5.85;;
65368;SDS011;51970;53.484;49.488;2023-05-14T06:39:31;13.30;;;5.88;;
65368;SDS011;51970;53.484;49.488;2023-05-14T06:41:58;10.02;;;5.20;;
65368;SDS011;51970;53.484;49.488;2023-05-14T06:44:27;14.20;;;6.15;;
65368;SDS011;51970;53.484;49.488;2023-05-14T06:46:55;10.40;;;5.97;;
65368;SDS011;51970;53.484;49.488;2023-05-14T06:49:23;19.08;;;7.53;;
65368;SDS011;51970;53.484;49.488;2023-05-14T06:51:52;9.75;;;5.07;;
65368;SDS011;51970;53.484;49.488;2023-05-14T06:54:35;10.75;;;4.25;;
65368;SDS011;51970;53.484;49.488;2023-05-14T06:57:03;13.30;;;3.83;;
65368;SDS011;51970;53.484;49.488;2023-05-14T06:59:30;14.88;;;4.85;;
65368;SDS011;51970;53.484;49.488;2023-05-14T07:02:01;10.65;;;3.58;;
65368;SDS011;51970;53.484;49.488;2023-05-14T07:04:53;14.43;;;4.70;;
65368;SDS011;51970;53.484;49.488;2023-05-14T07:07:44;11.00;;;4.75;;
65368;SDS011;51970;53.484;49.488;2023-05-14T07:10:53;8.68;;;4.35;;
65368;SDS011;51970;53.484;49.488;2023-05-14T07:13:26;10.90;;;4.25;;
65368;SDS011;51970;53.484;49.488;2023-05-14T07:15:59;9.05;;;4.55;;
65368;SDS011;51970;53.484;49.488;2023-05-14T07:18:35;11.88;;;4.82;;
65368;SDS011;51970;53.484;49.488;2023-05-14T07:21:07;17.65;;;6.72;;
65368;SDS011;51970;53.484;49.488;2023-05-14T07:24:02;13.52;;;6.00;;
65368;SDS011;51970;53.484;49.488;2023-05-14T07:26:31;12.50;;;7.10;;
65368;SDS011;51970;53.484;49.488;2023-05-14T07:29:33;13.55;;;6.93;;
65368;SDS011;51970;53.484;49.488;2023-05-14T07:32:02;12.13;;;6.68;;
65368;SDS011;51970;53.484;49.488;2023-05-14T07:34:47;10.40;;;5.65;;
65368;SDS011;51970;53.484;49.488;2023-05-14T07:37:16;14.50;;;5.65;;
65368;SDS011;51970;53.484;49.488;2023-05-14T07:40:11;7.93;;;4.47;;
65368;SDS011;51970;53.484;49.488;2023-05-14T07:42:37;8.63;;;4.18;;
65368;SDS011;51970;53.484;49.488;2023-05-14T07:45:08;9.77;;;3.33;;
65368;SDS011;51970;53.484;49.488;2023-05-14T07:47:35;7.18;;;3.40;;
65368;SDS011;51970;53.484;49.488;2023-05-14T07:50:03;8.85;;;4.20;;
65368;SDS011;51970;53.484;49.488;2023-05-14T07:52:51;8.73;;;3.97;;
65368;SDS011;51970;53.484;49.488;2023-05-14T07:55:29;8.75;;;4.40;;
65368;SDS011;51970;53.484;49.488;2023-05-14T07:57:59;10.70;;;3.20;;
65368;SDS011;51970;53.484;49.488;2023-05-14T08:00:53;6.80;;;3.65;;
65368;SDS011;51970;53.484;49.488;2023-05-14T08:03:41;9.63;;;3.30;;
65368;SDS011;51970;53.484;49.488;2023-05-14T08:06:08;7.65;;;3.80;;
65368;SDS011;51970;53.484;49.488;2023-05-14T08:08:44;8.15;;;4.00;;
65368;SDS011;51970;53.484;49.488;2023-05-14T08:11:18;8.43;;;4.05;;
65368;SDS011;51970;53.484;49.488;2023-05-14T08:13:47;8.57;;;4.53;;
65368;SDS011;51970;53.484;49.488;2023-05-14T08:16:13;9.57;;;4.47;;
65368;SDS011;51970;53.484;49.488;2023-05-14T08:18:41;8.10;;;2.63;;
65368;SDS011;51970;53.484;49.488;2023-05-14T08:21:13;6.65;;;2.78;;
65368;SDS011;51970;53.484;49.488;2023-05-14T08:23:48;5.25;;;2.42;;
65368;SDS011;51970;53.484;49.488;2023-05-14T08:26:17;6.10;;;2.88;;
65368;SDS011;51970;53.484;49.488;2023-05-14T08:29:13;8.10;;;2.72;;
65368;SDS011;51970;53.484;49.488;2023-05-14T08:31:42;5.90;;;2.70;;
65368;SDS011;51970;53.484;49.488;2023-05-14T08:34:51;7.38;;;2.92;;
65368;SDS011;51970;53.484;49.488;2023-05-14T08:37:19;5.90;;;2.35;;
65368;SDS011;51970;53.484;49.488;2023-05-14T08:39:50;11.70;;;3.35;;
65368;SDS011;51970;53.484;49.488;2023-05-14T08:42:18;7.20;;;3.47;;
65368;SDS011;51970;53.484;49.488;2023-05-14T08:44:51;6.20;;;3.13;;
65368;SDS011;51970;53.484;49.488;2023-05-14T08:47:23;6.47;;;2.35;;
65368;SDS011;51970;53.484;49.488;2023-05-14T08:50:05;5.35;;;2.42;;
65368;SDS011;51970;53.484;49.488;2023-05-14T08:52:33;6.47;;;2.28;;
65368;SDS011;51970;53.484;49.488;2023-05-14T08:55:03;4.88;;;1.73;;
65368;SDS011;51970;53.484;49.488;2023-05-14T08:57:31;7.05;;;2.47;;
65368;SDS011;51970;53.484;49.488;2023-05-14T09:00:00;7.05;;;2.50;;
65368;SDS011;51970;53.484;49.488;2023-05-14T09:02:34;6.35;;;2.45;;
65368;SDS011;51970;53.484;49.488;2023-05-14T09:05:16;7.93;;;3.15;;
65368;SDS011;51970;53.484;49.488;2023-05-14T09:07:46;9.60;;;3.55;;
65368;SDS011;51970;53.484;49.488;2023-05-14T09:10:14;8.57;;;5.10;;
65368;SDS011;51970;53.484;49.488;2023-05-14T09:12:42;8.98;;;4.38;;
65368;SDS011;51970;53.484;49.488;2023-05-14T09:15:09;11.07;;;6.28;;
65368;SDS011;51970;53.484;49.488;2023-05-14T09:17:35;24.77;;;11.52;;
65368;SDS011;51970;53.484;49.488;2023-05-14T09:20:01;12.07;;;5.75;;
65368;SDS011;51970;53.484;49.488;2023-05-14T09:22:30;9.85;;;4.70;;
65368;SDS011;51970;53.484;49.488;2023-05-14T09:25:02;9.02;;;4.97;;
65368;SDS011;51970;53.484;49.488;2023-05-14T09:27:34;9.43;;;4.47;;
65368;SDS011;51970;53.484;49.488;2023-05-14T09:30:11;15.80;;;6.80;;
65368;SDS011;51970;53.484;49.488;2023-05-14T09:32:56;12.40;;;5.63;;
65368;SDS011;51970;53.484;49.488;2023-05-14T09:35:29;5.40;;;2.40;;
65368;SDS011;51970;53.484;49.488;2023-05-14T09:37:57;5.45;;;1.63;;
65368;SDS011;51970;53.484;49.488;2023-05-14T09:40:24;7.13;;;2.28;;
65368;SDS011;51970;53.484;49.488;2023-05-14T09:42:56;5.45;;;2.00;;
65368;SDS011;51970;53.484;49.488;2023-05-14T09:45:24;6.45;;;2.80;;
65368;SDS011;51970;53.484;49.488;2023-05-14T09:47:54;12.05;;;2.78;;
65368;SDS011;51970;53.484;49.488;2023-05-14T09:50:25;6.30;;;2.65;;
65368;SDS011;51970;53.484;49.488;2023-05-14T09:52:53;8.98;;;2.90;;
65368;SDS011;51970;53.484;49.488;2023-05-14T09:55:26;7.75;;;2.83;;
65368;SDS011;51970;53.484;49.488;2023-05-14T09:57:57;7.35;;;3.13;;
65368;SDS011;51970;53.484;49.488;2023-05-14T10:00:23;8.88;;;3.35;;
65368;SDS011;51970;53.484;49.488;2023-05-14T10:02:57;10.70;;;4.80;;
65368;SDS011;51970;53.484;49.488;2023-05-14T10:05:35;10.52;;;3.55;;
65368;SDS011;51970;53.484;49.488;2023-05-14T10:08:05;12.02;;;3.72;;
65368;SDS011;51970;53.484;49.488;2023-05-14T10:10:40;9.63;;;3.55;;
65368;SDS011;51970;53.484;49.488;2023-05-14T10:13:12;11.63;;;3.63;;
65368;SDS011;51970;53.484;49.488;2023-05-14T10:15:58;7.85;;;3.40;;
65368;SDS011;51970;53.484;49.488;2023-05-14T10:21:34;6.80;;;2.20;;
65368;SDS011;51970;53.484;49.488;2023-05-14T10:24:03;7.65;;;2.63;;
65368;SDS011;51970;53.484;49.488;2023-05-14T10:26:33;8.10;;;2.38;;
65368;SDS011;51970;53.484;49.488;2023-05-14T10:29:09;11.43;;;2.67;;
65368;SDS011;51970;53.484;49.488;2023-05-14T10:32:05;8.48;;;2.33;;
65368;SDS011;51970;53.484;49.488;2023-05-14T10:34:38;10.90;;;2.83;;
65368;SDS011;51970;53.484;49.488;2023-05-14T10:37:43;11.63;;;3.20;;
65368;SDS011;51970;53.484;49.488;2023-05-14T10:41:21;7.15;;;2.22;;
65368;SDS011;51970;53.484;49.488;2023-05-14T10:44:27;7.35;;;2.95;;
65368;SDS011;51970;53.484;49.488;2023-05-14T10:47:57;7.18;;;2.75;;
65368;SDS011;51970;53.484;49.488;2023-05-14T10:51:29;10.05;;;4.32;;
65368;SDS011;51970;53.484;49.488;2023-05-14T10:54:07;9.85;;;3.67;;
65368;SDS011;51970;53.484;49.488;2023-05-14T10:56:46;11.68;;;3.47;;
65368;SDS011;51970;53.484;49.488;2023-05-14T11:00:19;8.90;;;4.20;;
65368;SDS011;51970;53.484;49.488;2023-05-14T11:03:18;9.35;;;3.35;;
65368;SDS011;51970;53.484;49.488;2023-05-14T11:05:49;13.38;;;4.43;;
65368;SDS011;51970;53.484;49.488;2023-05-14T11:08:25;11.60;;;3.85;;
65368;SDS011;51970;53.484;49.488;2023-05-14T11:10:55;10.20;;;3.22;;
65368;SDS011;51970;53.484;49.488;2023-05-14T11:13:29;12.07;;;3.88;;
65368;SDS011;51970;53.484;49.488;2023-05-14T11:17:03;13.05;;;4.95;;
65368;SDS011;51970;53.484;49.488;2023-05-14T11:19:58;21.00;;;6.57;;
65368;SDS011;51970;53.484;49.488;2023-05-14T11:23:28;20.50;;;6.20;;
65368;SDS011;51970;53.484;49.488;2023-05-14T11:26:22;16.20;;;5.53;;
65368;SDS011;51970;53.484;49.488;2023-05-14T11:29:08;11.30;;;4.93;;
65368;SDS011;51970;53.484;49.488;2023-05-14T11:31:50;9.40;;;3.72;;
65368;SDS011;51970;53.484;49.488;2023-05-14T11:34:20;8.15;;;2.83;;
65368;SDS011;51970;53.484;49.488;2023-05-14T11:36:48;9.65;;;3.22;;
65368;SDS011;51970;53.484;49.488;2023-05-14T11:39:35;6.75;;;3.10;;
65368;SDS011;51970;53.484;49.488;2023-05-14T11:42:09;7.47;;;3.58;;
65368;SDS011;51970;53.484;49.488;2023-05-14T11:45:00;7.22;;;2.90;;
65368;SDS011;51970;53.484;49.488;2023-05-14T11:47:28;9.57;;;2.95;;
65368;SDS011;51970;53.484;49.488;2023-05-14T11:50:08;10.70;;;4.00;;
65368;SDS011;51970;53.484;49.488;2023-05-14T11:53:02;10.93;;;3.85;;
65368;SDS011;51970;53.484;49.488;2023-05-14T11:55:34;7.45;;;3.58;;
65368;SDS011;51970;53.484;49.488;2023-05-14T11:58:02;7.63;;;3.15;;
65368;SDS011;51970;53.484;49.488;2023-05-14T12:00:31;7.05;;;3.55;;
65368;SDS011;51970;53.484;49.488;2023-05-14T12:03:01;9.77;;;3.17;;
65368;SDS011;51970;53.484;49.488;2023-05-14T12:05:55;10.80;;;3.30;;
65368;SDS011;51970;53.484;49.488;2023-05-14T12:08:42;9.57;;;4.85;;
65368;SDS011;51970;53.484;49.488;2023-05-14T12:11:19;9.05;;;4.28;;
65368;SDS011;51970;53.484;49.488;2023-05-14T12:14:54;9.18;;;4.72;;
65368;SDS011;51970;53.484;49.488;2023-05-14T12:17:53;8.27;;;3.55;;
65368;SDS011;51970;53.484;49.488;2023-05-14T12:20:23;6.75;;;2.95;;
65368;SDS011;51970;53.484;49.488;2023-05-14T12:22:50;8.95;;;2.78;;
65368;SDS011;51970;53.484;49.488;2023-05-14T12:25:18;9.55;;;3.15;;
65368;SDS011;51970;53.484;49.488;2023-05-14T12:27:47;9.15;;;3.53;;
65368;SDS011;51970;53.484;49.488;2023-05-14T12:30:17;7.47;;;2.33;;
65368;SDS011;51970;53.484;49.488;2023-05-14T12:32:44;5.78;;;2.50;;
65368;SDS011;51970;53.484;49.488;2023-05-14T12:35:45;6.65;;;2.45;;
65368;SDS011;51970;53.484;49.488;2023-05-14T12:38:15;5.72;;;2.15;;
65368;SDS011;51970;53.484;49.488;2023-05-14T12:40:42;6.85;;;2.15;;
65368;SDS011;51970;53.484;49.488;2023-05-14T12:43:11;6.53;;;3.25;;
65368;SDS011;51970;53.484;49.488;2023-05-14T12:45:38;6.03;;;2.92;;
65368;SDS011;51970;53.484;49.488;2023-05-14T12:48:36;10.10;;;3.20;;
65368;SDS011;51970;53.484;49.488;2023-05-14T12:51:59;8.90;;;3.75;;
65368;SDS011;51970;53.484;49.488;2023-05-14T12:55:23;7.20;;;2.38;;
65368;SDS011;51970;53.484;49.488;2023-05-14T12:58:01;6.88;;;3.30;;
65368;SDS011;51970;53.484;49.488;2023-05-14T13:04:31;7.18;;;2.92;;
65368;SDS011;51970;53.484;49.488;2023-05-14T13:07:04;9.27;;;3.05;;
65368;SDS011;51970;53.484;49.488;2023-05-14T13:09:57;8.00;;;3.97;;
65368;SDS011;51970;53.484;49.488;2023-05-14T13:12:27;8.00;;;3.90;;
65368;SDS011;51970;53.484;49.488;2023-05-14T13:15:41;7.40;;;3.15;;
65368;SDS011;51970;53.484;49.488;2023-05-14T13:18:08;6.68;;;2.95;;
65368;SDS011;51970;53.484;49.488;2023-05-14T13:21:02;7.25;;;4.22;;
65368;SDS011;51970;53.484;49.488;2023-05-14T13:24:06;6.18;;;2.65;;
65368;SDS011;51970;53.484;49.488;2023-05-14T13:26:46;7.05;;;2.80;;
65368;SDS011;51970;53.484;49.488;2023-05-14T13:29:30;6.65;;;2.17;;
65368;SDS011;51970;53.484;49.488;2023-05-14T13:31:58;5.53;;;1.85;;
65368;SDS011;51970;53.484;49.488;2023-05-14T13:34:31;7.65;;;2.20;;
65368;SDS011;51970;53.484;49.488;2023-05-14T13:37:07;7.93;;;2.28;;
65368;SDS011;51970;53.484;49.488;2023-05-14T13:39:41;6.25;;;2.70;;
65368;SDS011;51970;53.484;49.488;2023-05-14T13:42:10;9.75;;;2.35;;
65368;SDS011;51970;53.484;49.488;2023-05-14T13:44:36;7.05;;;2.85;;
65368;SDS011;51970;53.484;49.488;2023-05-14T13:47:03;6.45;;;2.22;;
65368;SDS011;51970;53.484;49.488;2023-05-14T13:49:34;6.28;;;2.97;;
65368;SDS011;51970;53.484;49.488;2023-05-14T13:52:04;9.45;;;2.10;;
65368;SDS011;51970;53.484;49.488;2023-05-14T13:54:54;8.55;;;2.45;;
65368;SDS011;51970;53.484;49.488;2023-05-14T13:57:39;10.23;;;2.45;;
65368;SDS011;51970;53.484;49.488;2023-05-14T14:00:09;5.00;;;2.00;;
65368;SDS011;51970;53.484;49.488;2023-05-14T14:02:41;4.63;;;1.80;;
65368;SDS011;51970;53.484;49.488;2023-05-14T14:05:28;7.63;;;2.72;;
65368;SDS011;51970;53.484;49.488;2023-05-14T14:08:24;4.93;;;1.73;;
65368;SDS011;51970;53.484;49.488;2023-05-14T14:10:51;4.78;;;1.65;;
65368;SDS011;51970;53.484;49.488;2023-05-14T14:13:20;9.38;;;2.38;;
65368;SDS011;51970;53.484;49.488;2023-05-14T14:15:53;5.97;;;2.50;;
65368;SDS011;51970;53.484;49.488;2023-05-14T14:18:44;6.20;;;2.28;;
65368;SDS011;51970;53.484;49.488;2023-05-14T14:21:59;6.40;;;2.83;;
65368;SDS011;51970;53.484;49.488;2023-05-14T14:24:26;6.97;;;2.58;;
65368;SDS011;51970;53.484;49.488;2023-05-14T14:26:55;5.60;;;3.00;;
65368;SDS011;51970;53.484;49.488;2023-05-14T14:29:26;6.88;;;2.53;;
65368;SDS011;51970;53.484;49.488;2023-05-14T14:32:21;8.43;;;3.25;;
65368;SDS011;51970;53.484;49.488;2023-05-14T14:34:50;5.45;;;2.22;;
65368;SDS011;51970;53.484;49.488;2023-05-14T14:37:52;5.15;;;1.98;;
65368;SDS011;51970;53.484;49.488;2023-05-14T14:40:20;6.57;;;2.40;;
65368;SDS011;51970;53.484;49.488;2023-05-14T14:42:49;7.10;;;3.22;;
65368;SDS011;51970;53.484;49.488;2023-05-14T14:45:16;6.45;;;2.08;;
65368;SDS011;51970;53.484;49.488;2023-05-14T14:47:47;6.18;;;2.65;;
65368;SDS011;51970;53.484;49.488;2023-05-14T14:51:04;6.07;;;2.65;;
65368;SDS011;51970;53.484;49.488;2023-05-14T14:53:33;5.82;;;2.78;;
65368;SDS011;51970;53.484;49.488;2023-05-14T14:56:03;5.93;;;2.45;;
65368;SDS011;51970;53.484;49.488;2023-05-14T14:58:35;6.40;;;2.10;;
65368;SDS011;51970;53.484;49.488;2023-05-14T15:01:02;5.18;;;1.73;;
65368;SDS011;51970;53.484;49.488;2023-05-14T15:03:33;5.82;;;2.28;;
65368;SDS011;51970;53.484;49.488;2023-05-14T15:06:43;6.82;;;2.13;;
65368;SDS011;51970;53.484;49.488;2023-05-14T15:09:35;7.32;;;2.20;;
65368;SDS011;51970;53.484;49.488;2023-05-14T15:12:37;4.80;;;2.53;;
65368;SDS011;51970;53.484;49.488;2023-05-14T15:15:18;4.60;;;1.77;;
65368;SDS011;51970;53.484;49.488;2023-05-14T15:17:57;6.20;;;1.40;;
65368;SDS011;51970;53.484;49.488;2023-05-14T15:23:08;6.82;;;2.25;;